Time;durP1;ratioP1;P1;durP2;ratioP2;P2;SDS_P1;SDS_P2;PMS_P1;PMS_P2;Temp;Humidity;BMP_temperature;BMP_pressure;BME280_temperature;BME280_humidity;BME280_pressure;Samples;Min_cycle;Max_cycle;Signal;HPM_P1;HPM_P2
2023/07/10 00:00:18;;;;;;;0.10;0.10;;;17.60;99.90;;;;;;5061526;28;20013;-73
2023/07/10 00:02:44;;;;;;;0.10;0.10;;;19.70;99.90;;;;;;5042617;28;20591;-74
2023/07/10 00:05:14;;;;;;;0.30;0.30;;;17.50;99.90;;;;;;5061101;28;20124;-72
2023/07/10 00:07:41;;;;;;;0.10;0.10;;;17.60;99.90;;;;;;5061368;28;20104;-74
2023/07/10 00:10:10;;;;;;;0.10;0.10;;;17.50;99.90;;;;;;5060248;28;20020;-72
2023/07/10 00:12:37;;;;;;;0.20;0.20;;;17.90;99.90;;;;;;5060562;28;20115;-72
2023/07/10 00:15:28;;;;;;;0.10;0.10;;;17.50;99.90;;;;;;5060620;28;20017;-73
2023/07/10 00:17:54;;;;;;;0.20;0.20;;;17.50;99.90;;;;;;5060547;28;20138;-72
2023/07/10 00:20:22;;;;;;;0.10;0.10;;;17.70;99.90;;;;;;5042717;28;20124;-72
2023/07/10 00:22:48;;;;;;;0.10;0.10;;;17.60;99.90;;;;;;5061028;28;20028;-82
2023/07/10 00:25:17;;;;;;;0.10;0.10;;;17.70;99.90;;;;;;5059924;28;20568;-73
2023/07/10 00:27:48;;;;;;;0.40;0.40;;;19.30;99.90;;;;;;5059984;28;20074;-83
2023/07/10 00:30:18;;;;;;;0.10;0.10;;;17.70;99.90;;;;;;5061162;28;20021;-79
2023/07/10 00:32:45;;;;;;;0.22;0.22;;;17.60;99.90;;;;;;5060125;28;20701;-71
2023/07/10 00:35:16;;;;;;;0.63;0.63;;;17.30;99.90;;;;;;5059414;28;20013;-73
2023/07/10 00:37:47;;;;;;;0.10;0.10;;;17.10;99.90;;;;;;5060547;28;20036;-73
2023/07/10 00:40:22;;;;;;;0.10;0.10;;;16.90;99.90;;;;;;5042026;28;20028;-72
2023/07/10 00:42:55;;;;;;;0.10;0.10;;;17.00;99.90;;;;;;5060130;28;20221;-73
2023/07/10 00:45:21;;;;;;;0.10;0.10;;;16.80;99.90;;;;;;5060995;28;20024;-79
2023/07/10 00:48:22;;;;;;;0.10;0.10;;;16.90;99.90;;;;;;5060123;28;20025;-73
2023/07/10 00:50:50;;;;;;;0.10;0.10;;;17.20;99.90;;;;;;5027832;28;20028;-73
2023/07/10 00:53:22;;;;;;;0.10;0.10;;;17.00;99.90;;;;;;5059806;28;20101;-84
2023/07/10 00:55:50;;;;;;;0.10;0.10;;;17.40;99.90;;;;;;5060546;28;20021;-72
2023/07/10 00:58:46;;;;;;;0.10;0.10;;;17.20;99.90;;;;;;5044110;28;20070;-76
2023/07/10 01:01:21;;;;;;;0.10;0.10;;;17.50;99.90;;;;;;4959354;28;20067;-74
2023/07/10 01:03:49;;;;;;;0.10;0.10;;;17.80;99.90;;;;;;4960597;28;20055;-72
2023/07/10 01:06:18;;;;;;;0.10;0.10;;;17.80;99.90;;;;;;4958157;28;20043;-75
2023/07/10 01:08:59;;;;;;;0.20;0.20;;;18.20;99.90;;;;;;4942002;28;20027;-71
2023/07/10 01:11:26;;;;;;;0.10;0.10;;;18.30;99.90;;;;;;4958724;28;20623;-84
2023/07/10 01:13:53;;;;;;;6.75;3.63;;;18.40;99.90;;;;;;4958054;28;20022;-75
2023/07/10 01:16:20;;;;;;;1.00;0.85;;;18.80;99.90;;;;;;4958589;28;20697;-85
2023/07/10 01:18:48;;;;;;;0.20;0.20;;;18.90;99.90;;;;;;4957557;28;20066;-82
2023/07/10 01:21:19;;;;;;;0.50;0.50;;;18.90;99.90;;;;;;4957957;28;20027;-87
2023/07/10 01:23:45;;;;;;;0.45;0.45;;;18.80;99.90;;;;;;4957714;28;20023;-72
2023/07/10 01:26:11;;;;;;;0.10;0.10;;;18.70;99.90;;;;;;4957771;28;20022;-79
2023/07/10 01:28:37;;;;;;;0.10;0.10;;;18.70;99.90;;;;;;4957869;28;20102;-73
2023/07/10 01:31:08;;;;;;;0.40;0.32;;;18.70;99.90;;;;;;4958396;28;20035;-85
2023/07/10 01:33:38;;;;;;;0.10;0.10;;;18.30;99.90;;;;;;4941282;28;20615;-72
2023/07/10 01:36:06;;;;;;;0.10;0.10;;;18.10;99.90;;;;;;4957289;28;20694;-71
2023/07/10 01:38:38;;;;;;;0.20;0.20;;;18.20;99.90;;;;;;5029677;28;20025;-81
2023/07/10 01:41:29;;;;;;;0.10;0.10;;;18.40;99.90;;;;;;5039202;28;20025;-73
2023/07/10 01:43:55;;;;;;;0.17;0.17;;;18.40;99.90;;;;;;5038984;28;20021;-73
2023/07/10 01:46:24;;;;;;;0.10;0.10;;;18.40;99.90;;;;;;5039235;28;20096;-73
2023/07/10 01:48:53;;;;;;;0.10;0.10;;;19.40;99.90;;;;;;5020828;28;20021;-85
2023/07/10 01:51:21;;;;;;;0.50;0.25;;;18.40;99.90;;;;;;5039135;28;20226;-72
2023/07/10 01:53:47;;;;;;;0.20;0.20;;;17.90;99.90;;;;;;5038896;28;20029;-77
2023/07/10 01:56:15;;;;;;;0.10;0.10;;;18.10;99.90;;;;;;5050106;28;20035;-71
2023/07/10 01:58:41;;;;;;;0.10;0.10;;;17.90;99.90;;;;;;5057739;28;20027;-74
2023/07/10 02:01:07;;;;;;;0.80;0.80;;;16.80;99.90;;;;;;5057544;28;20037;-73
2023/07/10 02:03:32;;;;;;;0.10;0.10;;;16.60;99.90;;;;;;5057899;28;20013;-74
2023/07/10 02:06:02;;;;;;;0.10;0.10;;;17.00;99.90;;;;;;5057408;28;20422;-75
2023/07/10 02:08:28;;;;;;;0.90;0.90;;;17.50;99.90;;;;;;5058054;28;20510;-74
2023/07/10 02:10:54;;;;;;;0.50;0.50;;;16.90;99.90;;;;;;5058357;28;20024;-71
2023/07/10 02:13:20;;;;;;;2.70;2.50;;;15.80;99.90;;;;;;5058320;28;20659;-76
2023/07/10 02:15:45;;;;;;;0.17;0.17;;;16.70;99.90;;;;;;5058497;28;20028;-71
2023/07/10 02:18:11;;;;;;;0.10;0.10;;;16.30;99.90;;;;;;5058131;28;20066;-72
2023/07/10 02:20:39;;;;;;;0.75;0.75;;;15.90;99.90;;;;;;5057711;28;20028;-77
2023/07/10 02:23:05;;;;;;;0.10;0.10;;;;;;;;;;5057626;28;20699;-72
2023/07/10 02:25:31;;;;;;;0.20;0.20;;;15.40;99.90;;;;;;5049956;28;20029;-75
2023/07/10 02:27:56;;;;;;;0.55;0.55;;;15.30;99.90;;;;;;4999798;28;20025;-81
2023/07/10 02:30:22;;;;;;;0.63;0.63;;;15.20;99.90;;;;;;5018119;28;20014;-74
2023/07/10 02:32:49;;;;;;;0.10;0.10;;;15.20;99.90;;;;;;5018082;28;20669;-87
2023/07/10 02:35:15;;;;;;;0.13;0.13;;;15.30;99.90;;;;;;5018183;28;20679;-73
2023/07/10 02:37:40;;;;;;;0.13;0.13;;;16.00;99.90;;;;;;5018429;28;20017;-74
2023/07/10 02:40:07;;;;;;;0.17;0.17;;;16.20;99.90;;;;;;5018246;28;20021;-75
2023/07/10 02:42:32;;;;;;;0.10;0.10;;;15.90;99.90;;;;;;5018340;28;20669;-79
2023/07/10 02:44:58;;;;;;;0.10;0.10;;;16.20;99.90;;;;;;5000471;28;20036;-89
2023/07/10 02:47:24;;;;;;;0.85;0.85;;;16.40;99.90;;;;;;5018085;28;20026;-75
2023/07/10 02:49:50;;;;;;;0.20;0.20;;;16.10;99.90;;;;;;5018075;28;20025;-72
2023/07/10 02:52:15;;;;;;;0.10;0.10;;;15.90;99.90;;;;;;5017965;28;20021;-72
2023/07/10 02:54:41;;;;;;;0.10;0.10;;;16.50;99.90;;;;;;5017914;28;20013;-72
2023/07/10 02:57:07;;;;;;;0.10;0.10;;;16.60;99.90;;;;;;5016076;28;20029;-73
2023/07/10 02:59:33;;;;;;;0.10;0.10;;;16.70;99.90;;;;;;5020547;28;20071;-72
2023/07/10 03:02:00;;;;;;;0.10;0.10;;;17.30;99.90;;;;;;5037798;28;20052;-79
2023/07/10 03:04:26;;;;;;;0.82;0.82;;;17.10;99.90;;;;;;5045223;28;20041;-72
2023/07/10 03:06:51;;;;;;;0.10;0.10;;;16.60;99.90;;;;;;5057764;28;20021;-74
2023/07/10 03:09:18;;;;;;;0.10;0.10;;;17.00;99.90;;;;;;5057358;28;20013;-78
2023/07/10 03:11:43;;;;;;;0.32;0.32;;;16.90;99.90;;;;;;5057425;28;20031;-72
2023/07/10 03:14:09;;;;;;;0.30;0.30;;;17.00;99.90;;;;;;5057582;28;20020;-73
2023/07/10 03:16:35;;;;;;;0.57;0.57;;;16.90;99.90;;;;;;5059068;28;20017;-72
2023/07/10 03:19:01;;;;;;;0.10;0.10;;;17.00;99.90;;;;;;5063324;28;20032;-74
2023/07/10 03:21:27;;;;;;;0.10;0.10;;;17.50;99.90;;;;;;5063560;28;20028;-72
2023/07/10 03:23:53;;;;;;;0.65;0.65;;;17.60;99.90;;;;;;5064486;28;20694;-74
2023/07/10 03:26:19;;;;;;;0.10;0.10;;;17.30;99.90;;;;;;5063668;28;20020;-72
2023/07/10 03:28:45;;;;;;;0.10;0.10;;;17.70;99.90;;;;;;5064529;28;20040;-75
2023/07/10 03:31:10;;;;;;;0.10;0.10;;;18.30;99.90;;;;;;5046275;28;20059;-78
2023/07/10 03:33:36;;;;;;;0.98;0.98;;;17.50;99.90;;;;;;5063940;28;20740;-74
2023/07/10 03:36:08;;;;;;;0.10;0.10;;;17.80;99.90;;;;;;5063282;28;20025;-81
2023/07/10 03:38:34;;;;;;;0.13;0.13;;;17.10;99.90;;;;;;5062795;28;20039;-74
2023/07/10 03:41:00;;;;;;;0.10;0.10;;;16.90;99.90;;;;;;5062164;28;20059;-79
2023/07/10 03:43:27;;;;;;;0.52;0.52;;;17.10;99.90;;;;;;5065494;28;20020;-74
2023/07/10 03:45:54;;;;;;;0.10;0.10;;;16.40;99.90;;;;;;5066755;28;20415;-77
2023/07/10 03:48:20;;;;;;;0.10;0.10;;;16.30;99.90;;;;;;5068253;28;20119;-78
2023/07/10 03:50:46;;;;;;;0.10;0.10;;;17.40;99.90;;;;;;5066596;28;20024;-85
2023/07/10 03:53:12;;;;;;;0.10;0.10;;;17.70;99.90;;;;;;5064307;28;20036;-73
2023/07/10 03:55:50;;;;;;;0.55;0.55;;;17.30;99.90;;;;;;5063152;28;20020;-75
2023/07/10 03:58:20;;;;;;;0.10;0.10;;;16.90;99.90;;;;;;5063384;28;20085;-79
2023/07/10 04:00:46;;;;;;;6.18;3.63;;;16.60;99.90;;;;;;5061558;28;20009;-72
2023/07/10 04:03:11;;;;;;;0.10;0.10;;;15.70;99.90;;;;;;5061098;28;20025;-72
2023/07/10 04:05:37;;;;;;;0.10;0.10;;;16.70;99.90;;;;;;5060589;28;20078;-82
2023/07/10 04:08:03;;;;;;;0.10;0.10;;;16.60;99.90;;;;;;5061724;28;20031;-79
2023/07/10 04:10:29;;;;;;;0.10;0.10;;;16.30;99.90;;;;;;5061603;28;20061;-82
2023/07/10 04:12:54;;;;;;;0.10;0.10;;;16.20;99.90;;;;;;5044219;28;20017;-80
2023/07/10 04:15:20;;;;;;;0.20;0.20;;;16.00;99.90;;;;;;5061274;28;20036;-88
2023/07/10 04:17:46;;;;;;;2.92;2.83;;;15.60;99.90;;;;;;5061642;28;20083;-83
2023/07/10 04:20:12;;;;;;;0.10;0.10;;;15.60;99.90;;;;;;5061590;28;20013;-76
2023/07/10 04:22:37;;;;;;;1.85;1.55;;;15.60;99.90;;;;;;5061668;28;20021;-80
2023/07/10 04:25:05;;;;;;;0.10;0.10;;;15.40;99.90;;;;;;5061181;28;20562;-82
2023/07/10 04:27:32;;;;;;;0.10;0.10;;;15.40;99.90;;;;;;5043407;28;20032;-75
2023/07/10 04:29:59;;;;;;;0.10;0.10;;;15.60;99.90;;;;;;5060426;28;20099;-72
2023/07/10 04:32:24;;;;;;;0.10;0.10;;;16.00;99.90;;;;;;5060920;28;20016;-79
2023/07/10 04:34:50;;;;;;;2.22;2.00;;;16.40;99.90;;;;;;5061524;28;20267;-77
2023/07/10 04:37:16;;;;;;;0.10;0.10;;;16.20;99.90;;;;;;5060993;28;20750;-79
2023/07/10 04:39:42;;;;;;;0.10;0.10;;;16.00;99.90;;;;;;5061301;28;20556;-83
2023/07/10 04:42:08;;;;;;;0.20;0.20;;;16.50;99.90;;;;;;5060388;28;20032;-88
2023/07/10 04:44:33;;;;;;;0.10;0.10;;;16.70;99.90;;;;;;5061347;28;20036;-81
2023/07/10 04:46:59;;;;;;;0.28;0.28;;;17.30;99.90;;;;;;5060748;28;20048;-75
2023/07/10 04:49:25;;;;;;;0.10;0.10;;;17.70;99.90;;;;;;5060914;28;20017;-84
2023/07/10 04:51:51;;;;;;;0.40;0.40;;;17.90;99.90;;;;;;5060976;28;20108;-79
2023/07/10 04:54:16;;;;;;;0.10;0.10;;;18.00;99.90;;;;;;5060941;28;20020;-72
2023/07/10 04:56:42;;;;;;;0.10;0.10;;;18.80;99.90;;;;;;5060982;28;20033;-74
2023/07/10 04:59:08;;;;;;;0.30;0.30;;;19.20;99.90;;;;;;5060403;28;20016;-75
2023/07/10 05:01:34;;;;;;;1.10;1.10;;;19.40;99.90;;;;;;5042012;28;20040;-73
2023/07/10 05:04:01;;;;;;;0.10;0.10;;;19.60;99.90;;;;;;5060218;28;20052;-76
2023/07/10 05:06:27;;;;;;;0.20;0.20;;;19.80;99.90;;;;;;5060805;28;20099;-82
2023/07/10 05:08:54;;;;;;;0.65;0.65;;;20.00;99.90;;;;;;5060533;28;20078;-86
2023/07/10 05:11:22;;;;;;;0.10;0.10;;;20.10;99.90;;;;;;5059659;28;20025;-84
2023/07/10 05:13:48;;;;;;;0.10;0.10;;;20.20;99.90;;;;;;5060419;28;20013;-78
2023/07/10 05:16:15;;;;;;;0.20;0.20;;;20.20;99.90;;;;;;5059002;28;20993;-72
2023/07/10 05:18:40;;;;;;;0.10;0.10;;;20.10;99.90;;;;;;5060103;28;20013;-79
2023/07/10 05:21:06;;;;;;;0.20;0.20;;;19.60;99.90;;;;;;5060105;28;20032;-73
2023/07/10 05:23:32;;;;;;;0.10;0.10;;;19.70;99.90;;;;;;5041507;28;20032;-81
2023/07/10 05:25:58;;;;;;;1.13;1.08;;;19.70;99.90;;;;;;5041603;28;20696;-78
2023/07/10 05:28:24;;;;;;;0.75;0.75;;;19.90;99.90;;;;;;5059117;28;20083;-82
2023/07/10 05:30:50;;;;;;;0.00;0.00;;;20.20;99.90;;;;;;5060229;28;20012;-76
2023/07/10 05:33:15;;;;;;;0.30;0.22;;;20.40;99.90;;;;;;5059732;28;20013;-76
2023/07/10 05:35:49;;;;;;;0.10;0.10;;;20.60;99.90;;;;;;5041489;28;20423;-78
2023/07/10 05:38:15;;;;;;;0.40;0.40;;;21.10;99.90;;;;;;5059713;28;20036;-78
2023/07/10 05:40:41;;;;;;;0.10;0.10;;;20.80;99.90;;;;;;5058886;28;20150;-79
2023/07/10 05:43:07;;;;;;;0.10;0.10;;;20.90;99.90;;;;;;5060070;28;20103;-76
2023/07/10 05:45:33;;;;;;;0.35;0.35;;;20.90;99.90;;;;;;5059603;28;20088;-74
2023/07/10 05:47:59;;;;;;;0.20;0.20;;;20.80;99.90;;;;;;5058764;28;20683;-71
2023/07/10 05:50:24;;;;;;;0.10;0.10;;;20.80;99.90;;;;;;5059171;28;20027;-84
2023/07/10 05:52:50;;;;;;;0.10;0.10;;;21.00;99.90;;;;;;5059930;28;20016;-77
2023/07/10 05:55:16;;;;;;;0.10;0.10;;;20.90;99.90;;;;;;5059891;28;20609;-79
2023/07/10 05:57:41;;;;;;;0.10;0.10;;;20.90;99.90;;;;;;5059511;28;20050;-80
2023/07/10 06:00:08;;;;;;;0.10;0.10;;;20.50;99.90;;;;;;5059596;28;20017;-79
2023/07/10 06:02:33;;;;;;;0.10;0.10;;;20.60;99.90;;;;;;5058849;28;20089;-81
2023/07/10 06:04:59;;;;;;;0.20;0.20;;;20.90;99.90;;;;;;5059452;28;20050;-82
2023/07/10 06:07:25;;;;;;;0.85;0.85;;;20.90;99.90;;;;;;5059423;28;20052;-81
2023/07/10 06:09:50;;;;;;;0.10;0.10;;;20.80;99.90;;;;;;5059548;28;20100;-79
2023/07/10 06:12:16;;;;;;;1.13;1.13;;;21.10;99.90;;;;;;5059473;28;20108;-78
2023/07/10 06:14:42;;;;;;;0.50;0.50;;;21.20;99.90;;;;;;5058956;28;20585;-76
2023/07/10 06:17:08;;;;;;;0.17;0.17;;;21.30;99.90;;;;;;5059188;28;20013;-88
2023/07/10 06:19:33;;;;;;;0.30;0.30;;;21.50;99.90;;;;;;5058278;28;20074;-88
2023/07/10 06:22:10;;;;;;;0.50;0.50;;;21.60;99.90;;;;;;5058478;28;20683;-74
2023/07/10 06:24:36;;;;;;;0.20;0.20;;;21.50;99.90;;;;;;5059552;28;20031;-81
2023/07/10 06:27:02;;;;;;;0.10;0.10;;;21.80;99.90;;;;;;5058866;28;20041;-87
2023/07/10 06:29:29;;;;;;;0.35;0.30;;;21.90;99.90;;;;;;5043836;28;20536;-73
2023/07/10 06:31:55;;;;;;;0.17;0.17;;;21.90;99.90;;;;;;5062277;28;20091;-82
2023/07/10 06:34:21;;;;;;;0.10;0.10;;;22.00;99.90;;;;;;5060175;28;20028;-72
2023/07/10 06:36:46;;;;;;;0.10;0.10;;;22.50;99.90;;;;;;5060403;28;20143;-74
2023/07/10 06:39:12;;;;;;;0.10;0.10;;;22.20;99.90;;;;;;5063436;28;20701;-74
2023/07/10 06:41:38;;;;;;;0.22;0.22;;;22.30;99.90;;;;;;5061764;28;20694;-72
2023/07/10 06:44:04;;;;;;;0.10;0.10;;;22.20;99.90;;;;;;5065108;28;20724;-74
2023/07/10 06:46:30;;;;;;;0.13;0.13;;;21.90;99.90;;;;;;5066146;28;20089;-75
2023/07/10 06:48:55;;;;;;;0.25;0.20;;;22.00;99.90;;;;;;5066310;28;20012;-82
2023/07/10 06:51:21;;;;;;;0.57;0.57;;;21.90;99.90;;;;;;5025966;28;20852;-86
2023/07/10 06:53:47;;;;;;;1.00;1.00;;;21.70;99.90;;;;;;5059552;28;20648;-80
2023/07/10 06:56:13;;;;;;;0.10;0.10;;;22.00;99.90;;;;;;5059554;28;20027;-77
2023/07/10 06:58:38;;;;;;;0.47;0.35;;;21.50;99.90;;;;;;5058005;28;20033;-83
2023/07/10 07:01:04;;;;;;;0.13;0.13;;;22.00;99.90;;;;;;5058894;28;20044;-84
2023/07/10 07:03:30;;;;;;;1.35;1.33;;;22.20;99.90;;;;;;5058032;28;20096;-76
2023/07/10 07:05:56;;;;;;;0.10;0.10;;;22.30;99.90;;;;;;5057404;28;20167;-85
2023/07/10 07:08:24;;;;;;;0.10;0.10;;;22.20;99.90;;;;;;5058694;28;20036;-72
2023/07/10 07:10:51;;;;;;;0.10;0.10;;;22.20;99.90;;;;;;5057901;28;20020;-83
2023/07/10 07:13:18;;;;;;;8.77;1.38;;;22.00;99.90;;;;;;5057151;28;20032;-78
2023/07/10 07:15:48;;;;;;;0.20;0.20;;;22.10;99.90;;;;;;5057442;28;20032;-77
2023/07/10 07:18:13;;;;;;;0.73;0.73;;;21.80;99.90;;;;;;5057918;28;20038;-76
2023/07/10 07:20:39;;;;;;;0.47;0.43;;;21.90;99.90;;;;;;5057754;28;20748;-84
2023/07/10 07:23:05;;;;;;;0.73;0.73;;;21.80;99.90;;;;;;5056805;28;20040;-75
2023/07/10 07:25:31;;;;;;;1.55;1.45;;;22.00;99.90;;;;;;5057876;28;20025;-78
2023/07/10 07:28:03;;;;;;;0.08;0.08;;;22.00;99.90;;;;;;5057568;28;20526;-76
2023/07/10 07:30:29;;;;;;;0.55;0.55;;;22.40;99.90;;;;;;5057829;28;20020;-79
2023/07/10 07:32:56;;;;;;;0.52;0.52;;;22.50;99.90;;;;;;5057067;28;20016;-73
2023/07/10 07:35:22;;;;;;;0.10;0.10;;;22.30;99.90;;;;;;5057593;28;20032;-76
2023/07/10 07:37:48;;;;;;;3.45;2.20;;;22.50;99.90;;;;;;5057495;28;20586;-73
2023/07/10 07:40:16;;;;;;;0.35;0.35;;;22.60;99.90;;;;;;5039847;28;20035;-73
2023/07/10 07:42:43;;;;;;;0.10;0.10;;;22.70;99.90;;;;;;5039200;28;20102;-76
2023/07/10 07:45:10;;;;;;;0.10;0.10;;;22.90;99.90;;;;;;5057211;28;20039;-73
2023/07/10 07:47:35;;;;;;;0.38;0.38;;;23.00;99.90;;;;;;5057521;28;20024;-75
2023/07/10 07:50:01;;;;;;;0.15;0.15;;;23.00;99.90;;;;;;5057947;28;20025;-72
2023/07/10 07:52:27;;;;;;;3.70;3.50;;;22.90;99.90;;;;;;5038461;28;20600;-80
2023/07/10 07:54:53;;;;;;;0.75;0.75;;;23.00;99.90;;;;;;5056629;28;20020;-72
2023/07/10 07:57:22;;;;;;;0.10;0.10;;;23.00;99.90;;;;;;5056360;28;20571;-77
2023/07/10 07:59:49;;;;;;;3.53;3.30;;;22.90;99.90;;;;;;5056834;28;20017;-78
2023/07/10 08:02:15;;;;;;;3.05;2.83;;;22.80;99.90;;;;;;5038011;28;20701;-72
2023/07/10 08:04:41;;;;;;;7.63;1.70;;;23.00;99.90;;;;;;5058383;28;20102;-74
2023/07/10 08:07:07;;;;;;;0.43;0.43;;;23.20;99.90;;;;;;5059517;28;20089;-73
2023/07/10 08:09:34;;;;;;;0.10;0.10;;;23.10;99.90;;;;;;5059929;28;20675;-76
2023/07/10 08:12:00;;;;;;;2.88;2.75;;;23.20;99.90;;;;;;5059636;28;20029;-77
2023/07/10 08:14:26;;;;;;;0.10;0.10;;;23.30;99.90;;;;;;5059814;28;20104;-78
2023/07/10 08:16:52;;;;;;;0.10;0.10;;;23.50;99.90;;;;;;5059652;28;20025;-80
2023/07/10 08:19:18;;;;;;;2.97;2.80;;;23.60;99.90;;;;;;5059516;28;20078;-76
2023/07/10 08:21:46;;;;;;;4.82;4.63;;;23.70;99.90;;;;;;5059906;28;20038;-73
2023/07/10 08:24:11;;;;;;;29.27;1.73;;;23.90;99.90;;;;;;5059492;28;20023;-82
2023/07/10 08:26:37;;;;;;;0.38;0.38;;;23.70;99.90;;;;;;5060509;28;20028;-75
2023/07/10 08:29:23;;;;;;;0.10;0.10;;;23.80;99.90;;;;;;5041488;28;20578;-76
2023/07/10 08:31:49;;;;;;;0.10;0.10;;;24.00;99.90;;;;;;5041440;28;20078;-72
2023/07/10 08:34:15;;;;;;;2.95;2.75;;;24.30;99.90;;;;;;5059179;28;20025;-74
2023/07/10 08:36:41;;;;;;;0.45;0.45;;;24.70;99.90;;;;;;5059229;28;20036;-80
2023/07/10 08:39:06;;;;;;;0.10;0.10;;;24.70;99.90;;;;;;5059508;28;20013;-76
2023/07/10 08:41:32;;;;;;;0.10;0.10;;;24.70;99.90;;;;;;5059085;28;20066;-72
2023/07/10 08:43:58;;;;;;;1.30;1.23;;;23.70;99.90;;;;;;5059000;28;20128;-82
2023/07/10 08:46:26;;;;;;;0.43;0.40;;;24.90;99.90;;;;;;5058934;28;20017;-72
2023/07/10 08:48:59;;;;;;;0.10;0.10;;;25.00;99.90;;;;;;5041463;28;20024;-78
2023/07/10 08:51:37;;;;;;;0.43;0.43;;;25.20;99.90;;;;;;5059362;28;20020;-76
2023/07/10 08:54:13;;;;;;;0.32;0.30;;;25.30;99.90;;;;;;5058816;28;20029;-74
2023/07/10 08:56:49;;;;;;;0.57;0.57;;;25.50;99.90;;;;;;5059019;28;20017;-73
2023/07/10 08:59:33;;;;;;;1.25;1.17;;;25.50;99.90;;;;;;5059907;28;20569;-73
2023/07/10 09:01:59;;;;;;;1.55;1.45;;;25.50;99.90;;;;;;5059145;28;20040;-73
2023/07/10 09:04:26;;;;;;;0.82;0.82;;;25.60;99.90;;;;;;5056091;28;20048;-73
2023/07/10 09:06:57;;;;;;;0.65;0.65;;;25.70;99.90;;;;;;5038939;28;20078;-78
2023/07/10 09:09:22;;;;;;;0.10;0.10;;;26.20;99.90;;;;;;5021160;28;20025;-74
2023/07/10 09:11:49;;;;;;;0.10;0.10;;;25.90;99.90;;;;;;5021505;28;20581;-73
2023/07/10 09:14:33;;;;;;;0.20;0.20;;;26.00;99.90;;;;;;5020949;28;20035;-76
2023/07/10 09:17:01;;;;;;;0.10;0.10;;;25.80;99.90;;;;;;5039064;28;20025;-75
2023/07/10 09:19:30;;;;;;;0.52;0.50;;;26.10;99.90;;;;;;5039496;28;20013;-73
2023/07/10 09:21:55;;;;;;;0.45;0.45;;;26.10;99.90;;;;;;5039719;28;20653;-74
2023/07/10 09:24:22;;;;;;;6.03;2.75;;;29.00;99.90;;;;;;5044590;28;20025;-75
2023/07/10 09:26:49;;;;;;;1.17;0.75;;;26.30;99.50;;;;;;5039541;28;20021;-74
2023/07/10 09:29:33;;;;;;;0.40;0.38;;;26.30;99.90;;;;;;5039715;28;20055;-73
2023/07/10 09:32:10;;;;;;;0.95;0.88;;;26.30;99.70;;;;;;5021069;28;20199;-76
2023/07/10 09:34:45;;;;;;;0.20;0.20;;;26.50;99.10;;;;;;5040817;28;20649;-74
2023/07/10 09:37:16;;;;;;;0.85;0.75;;;26.60;98.60;;;;;;5058669;28;20078;-74
2023/07/10 09:39:42;;;;;;;0.60;0.60;;;26.70;98.50;;;;;;5058372;28;20189;-75
2023/07/10 09:42:20;;;;;;;0.57;0.57;;;26.70;98.60;;;;;;5058452;28;20656;-80
2023/07/10 09:44:51;;;;;;;0.60;0.43;;;26.80;97.80;;;;;;5058416;28;20013;-82
2023/07/10 09:47:21;;;;;;;0.32;0.32;;;26.90;97.30;;;;;;5040578;28;20702;-82
2023/07/10 09:49:49;;;;;;;0.73;0.73;;;27.10;97.90;;;;;;5058595;28;20027;-84
2023/07/10 09:52:24;;;;;;;0.85;0.65;;;27.20;97.60;;;;;;5058218;28;20111;-75
2023/07/10 09:55:09;;;;;;;3.20;1.33;;;26.70;96.90;;;;;;5057745;28;20028;-84
2023/07/10 09:57:55;;;;;;;0.38;0.32;;;27.40;96.80;;;;;;5057938;28;20025;-75
2023/07/10 10:00:22;;;;;;;0.45;0.45;;;27.40;96.90;;;;;;5058210;28;20016;-72
2023/07/10 10:03:12;;;;;;;1.40;0.85;;;27.40;96.40;;;;;;5058477;28;20094;-74
2023/07/10 10:05:41;;;;;;;0.45;0.45;;;27.70;95.00;;;;;;5047978;28;20049;-76
2023/07/10 10:08:23;;;;;;;0.10;0.10;;;27.80;94.50;;;;;;5038274;28;20117;-76
2023/07/10 10:11:07;;;;;;;0.10;0.10;;;27.90;92.90;;;;;;5037468;28;20021;-80
2023/07/10 10:13:44;;;;;;;0.38;0.32;;;27.70;92.40;;;;;;5037442;28;20267;-74
2023/07/10 10:16:16;;;;;;;0.10;0.10;;;28.00;93.20;;;;;;5037802;28;20017;-73
2023/07/10 10:19:03;;;;;;;0.30;0.30;;;28.20;92.10;;;;;;5038022;28;20272;-77
2023/07/10 10:21:32;;;;;;;0.20;0.20;;;28.00;92.30;;;;;;5037475;28;20057;-77
2023/07/10 10:24:03;;;;;;;0.08;0.08;;;28.50;91.10;;;;;;5037741;28;20025;-85
2023/07/10 10:26:53;;;;;;;0.22;0.22;;;28.70;90.40;;;;;;5037206;28;20017;-74
2023/07/10 10:29:40;;;;;;;3.55;3.25;;;29.10;90.60;;;;;;5037435;28;20633;-77
2023/07/10 10:32:33;;;;;;;0.20;0.17;;;29.50;90.40;;;;;;5037664;28;20675;-74
2023/07/10 10:35:08;;;;;;;;;;;29.10;88.00;;;;;;5020210;28;20170;-73
2023/07/10 10:37:45;;;;;;;0.63;0.63;;;29.40;85.90;;;;;;5037592;28;19995;-74
2023/07/10 10:40:20;;;;;;;0.30;0.30;;;29.70;84.00;;;;;;5021427;28;20082;-75
2023/07/10 10:42:52;;;;;;;1.40;1.30;;;29.60;86.70;;;;;;5021820;28;20626;-75
2023/07/10 10:45:41;;;;;;;4.82;2.85;;;29.40;84.90;;;;;;5038047;28;20070;-75
2023/07/10 10:48:43;;;;;;;0.08;0.08;;;29.50;84.30;;;;;;5020016;28;20115;-80
2023/07/10 10:51:47;;;;;;;0.28;0.28;;;29.30;84.20;;;;;;5021684;28;20139;-72
2023/07/10 10:54:39;;;;;;;0.45;0.20;;;30.00;83.80;;;;;;5038834;28;20044;-75
2023/07/10 10:57:24;;;;;;;1.60;1.50;;;29.60;83.50;;;;;;5038678;28;20496;-74
2023/07/10 11:00:17;;;;;;;0.60;0.60;;;30.00;80.80;;;;;;5050912;28;20017;-73
2023/07/10 11:02:51;;;;;;;0.55;0.25;;;29.70;80.90;;;;;;5056894;28;20067;-75
2023/07/10 11:05:27;;;;;;;0.55;0.55;;;29.90;80.30;;;;;;5057239;28;20041;-73
2023/07/10 11:07:57;;;;;;;0.32;0.28;;;30.20;79.00;;;;;;5056947;28;20040;-85
2023/07/10 11:10:32;;;;;;;0.30;0.30;;;30.30;79.00;;;;;;5039597;28;20039;-77
2023/07/10 11:12:58;;;;;;;0.52;0.52;;;30.60;78.30;;;;;;5057840;28;20024;-78
2023/07/10 11:15:26;;;;;;;2.20;0.73;;;30.80;77.70;;;;;;5040077;28;20518;-78
2023/07/10 11:17:54;;;;;;;0.35;0.35;;;31.20;79.50;;;;;;5058030;28;20025;-80
2023/07/10 11:20:23;;;;;;;0.15;0.15;;;31.50;77.10;;;;;;5073725;28;20035;-74
2023/07/10 11:22:57;;;;;;;5.68;1.70;;;31.50;77.20;;;;;;5077186;28;20020;-74
2023/07/10 11:25:44;;;;;;;0.10;0.10;;;31.50;76.70;;;;;;5076641;28;20532;-73
2023/07/10 11:28:22;;;;;;;0.32;0.32;;;31.30;76.30;;;;;;5059476;28;20024;-75
2023/07/10 11:31:11;;;;;;;0.47;0.30;;;31.50;75.90;;;;;;5076767;28;20043;-74
2023/07/10 11:33:37;;;;;;;0.22;0.22;;;31.70;76.60;;;;;;5075587;28;20099;-73
2023/07/10 11:36:24;;;;;;;0.55;0.55;;;31.80;75.70;;;;;;5056369;28;20103;-76
2023/07/10 11:39:11;;;;;;;0.40;0.40;;;31.70;73.90;;;;;;5056975;28;20025;-73
2023/07/10 11:41:44;;;;;;;0.57;0.43;;;29.40;73.20;;;;;;5060149;28;20056;-74
2023/07/10 11:44:28;;;;;;;0.50;0.47;;;32.60;74.10;;;;;;5060628;28;20028;-74
2023/07/10 11:46:57;;;;;;;0.50;0.50;;;32.70;74.10;;;;;;5042383;28;20571;-77
2023/07/10 11:49:44;;;;;;;0.10;0.10;;;32.70;72.40;;;;;;5060471;28;20020;-73
2023/07/10 11:52:15;;;;;;;0.70;0.35;;;32.60;71.70;;;;;;5060049;28;20036;-73
2023/07/10 11:54:47;;;;;;;0.98;0.73;;;32.70;71.90;;;;;;5060363;28;20033;-74
2023/07/10 11:57:24;;;;;;;0.90;0.90;;;33.20;71.00;;;;;;5060165;28;20103;-73
2023/07/10 11:59:55;;;;;;;0.82;0.82;;;33.70;71.90;;;;;;5060136;28;20074;-72
2023/07/10 12:02:32;;;;;;;0.30;0.30;;;33.90;69.10;;;;;;5041539;28;20048;-76
2023/07/10 12:04:59;;;;;;;2.22;1.05;;;34.40;69.50;;;;;;5059701;28;20048;-77
2023/07/10 12:07:25;;;;;;;1.75;0.90;;;34.40;67.50;;;;;;5042335;28;20024;-73
2023/07/10 12:09:55;;;;;;;0.10;0.10;;;34.70;68.00;;;;;;5059962;28;20024;-74
2023/07/10 12:12:21;;;;;;;0.17;0.17;;;35.00;66.60;;;;;;5059903;28;20737;-74
2023/07/10 12:14:46;;;;;;;1.40;0.55;;;35.20;66.80;;;;;;5060134;28;20017;-75
2023/07/10 12:17:20;;;;;;;0.85;0.50;;;35.50;66.30;;;;;;5041685;28;20068;-75
2023/07/10 12:19:48;;;;;;;0.40;0.40;;;35.20;66.00;;;;;;5060074;28;20025;-74
2023/07/10 12:22:24;;;;;;;3.15;1.35;;;35.20;65.30;;;;;;5059240;28;20040;-75
2023/07/10 12:24:56;;;;;;;1.00;0.75;;;35.10;65.50;;;;;;5059422;28;20217;-74
2023/07/10 12:27:23;;;;;;;0.30;0.30;;;35.30;66.20;;;;;;5059779;28;20028;-76
2023/07/10 12:29:50;;;;;;;0.65;0.55;;;35.60;66.60;;;;;;5060064;28;20024;-74
2023/07/10 12:32:17;;;;;;;0.73;0.63;;;35.80;64.40;;;;;;5059507;28;20027;-75
2023/07/10 12:34:43;;;;;;;2.40;1.33;;;35.90;64.30;;;;;;5059341;28;20024;-74
2023/07/10 12:37:14;;;;;;;2.15;1.00;;;35.70;63.80;;;;;;5059484;28;20265;-76
2023/07/10 12:39:42;;;;;;;0.85;0.52;;;36.00;64.00;;;;;;5059941;28;20029;-82
2023/07/10 12:42:26;;;;;;;0.40;0.40;;;36.70;64.20;;;;;;5058932;28;20060;-78
2023/07/10 12:44:52;;;;;;;0.80;0.80;;;37.00;64.70;;;;;;5041869;28;20024;-73
2023/07/10 12:47:18;;;;;;;0.30;0.30;;;37.50;64.10;;;;;;5059418;28;20039;-74
2023/07/10 12:49:52;;;;;;;0.77;0.70;;;37.70;61.90;;;;;;5058795;28;20222;-75
2023/07/10 12:52:20;;;;;;;2.15;2.05;;;37.50;61.30;;;;;;5059208;28;20678;-80
2023/07/10 12:54:52;;;;;;;15.57;1.02;;;37.50;62.10;;;;;;5059540;28;20025;-75
2023/07/10 12:57:30;;;;;;;0.57;0.38;;;37.00;62.00;;;;;;5059308;28;20023;-75
2023/07/10 13:00:00;;;;;;;1.52;0.40;;;36.20;62.40;;;;;;5041590;28;20029;-76